sensor_id;sensor_type;location;lat;lon;timestamp;P1;durP1;ratioP1;P2;durP2;ratioP2
57341;SDS011;43175;51.002;18.316;2023-11-21T00:00:30;19.50;;;11.30;;
57341;SDS011;43175;51.002;18.316;2023-11-21T00:02:56;23.50;;;11.30;;
57341;SDS011;43175;51.002;18.316;2023-11-21T00:05:22;21.70;;;11.60;;
57341;SDS011;43175;51.002;18.316;2023-11-21T00:07:48;22.40;;;11.10;;
57341;SDS011;43175;51.002;18.316;2023-11-21T00:10:14;21.20;;;11.10;;
57341;SDS011;43175;51.002;18.316;2023-11-21T00:12:41;19.10;;;10.60;;
57341;SDS011;43175;51.002;18.316;2023-11-21T00:15:07;20.50;;;11.00;;
57341;SDS011;43175;51.002;18.316;2023-11-21T00:17:36;19.70;;;9.80;;
57341;SDS011;43175;51.002;18.316;2023-11-21T00:20:03;21.30;;;10.20;;
57341;SDS011;43175;51.002;18.316;2023-11-21T00:22:32;18.10;;;9.40;;
57341;SDS011;43175;51.002;18.316;2023-11-21T00:24:58;19.50;;;9.50;;
57341;SDS011;43175;51.002;18.316;2023-11-21T00:27:23;18.10;;;9.00;;
57341;SDS011;43175;51.002;18.316;2023-11-21T00:29:49;21.70;;;9.40;;
57341;SDS011;43175;51.002;18.316;2023-11-21T00:32:14;17.20;;;8.80;;
57341;SDS011;43175;51.002;18.316;2023-11-21T00:34:40;17.30;;;9.20;;
57341;SDS011;43175;51.002;18.316;2023-11-21T00:37:05;17.20;;;9.10;;
57341;SDS011;43175;51.002;18.316;2023-11-21T00:39:31;17.70;;;9.00;;
57341;SDS011;43175;51.002;18.316;2023-11-21T00:41:58;18.20;;;10.00;;
57341;SDS011;43175;51.002;18.316;2023-11-21T00:44:24;16.80;;;9.40;;
57341;SDS011;43175;51.002;18.316;2023-11-21T00:46:49;20.30;;;9.50;;
57341;SDS011;43175;51.002;18.316;2023-11-21T00:49:15;17.00;;;9.10;;
57341;SDS011;43175;51.002;18.316;2023-11-21T00:51:41;17.30;;;9.20;;
57341;SDS011;43175;51.002;18.316;2023-11-21T00:54:06;17.60;;;9.30;;
57341;SDS011;43175;51.002;18.316;2023-11-21T00:56:32;15.90;;;7.60;;
57341;SDS011;43175;51.002;18.316;2023-11-21T00:58:57;14.50;;;7.20;;
57341;SDS011;43175;51.002;18.316;2023-11-21T01:01:22;15.70;;;7.40;;
57341;SDS011;43175;51.002;18.316;2023-11-21T01:03:49;14.70;;;7.00;;
57341;SDS011;43175;51.002;18.316;2023-11-21T01:06:15;14.50;;;6.70;;
57341;SDS011;43175;51.002;18.316;2023-11-21T01:08:41;15.30;;;6.80;;
57341;SDS011;43175;51.002;18.316;2023-11-21T01:11:07;17.30;;;6.90;;
57341;SDS011;43175;51.002;18.316;2023-11-21T01:13:34;14.50;;;6.10;;
57341;SDS011;43175;51.002;18.316;2023-11-21T01:16:00;12.00;;;5.50;;
57341;SDS011;43175;51.002;18.316;2023-11-21T01:18:26;13.50;;;5.60;;
57341;SDS011;43175;51.002;18.316;2023-11-21T01:20:51;12.60;;;5.60;;
57341;SDS011;43175;51.002;18.316;2023-11-21T01:23:19;11.90;;;5.30;;
57341;SDS011;43175;51.002;18.316;2023-11-21T01:25:44;13.00;;;5.50;;
57341;SDS011;43175;51.002;18.316;2023-11-21T01:28:10;10.90;;;4.40;;
57341;SDS011;43175;51.002;18.316;2023-11-21T01:30:35;10.30;;;4.50;;
57341;SDS011;43175;51.002;18.316;2023-11-21T01:33:01;11.20;;;4.20;;
57341;SDS011;43175;51.002;18.316;2023-11-21T01:35:26;9.90;;;3.90;;
57341;SDS011;43175;51.002;18.316;2023-11-21T01:37:52;10.30;;;3.40;;
57341;SDS011;43175;51.002;18.316;2023-11-21T01:40:17;9.60;;;3.40;;
57341;SDS011;43175;51.002;18.316;2023-11-21T01:42:44;11.90;;;5.20;;
57341;SDS011;43175;51.002;18.316;2023-11-21T01:45:12;10.40;;;4.60;;
57341;SDS011;43175;51.002;18.316;2023-11-21T01:47:38;11.80;;;4.00;;
57341;SDS011;43175;51.002;18.316;2023-11-21T01:50:03;10.70;;;4.40;;
57341;SDS011;43175;51.002;18.316;2023-11-21T01:52:32;12.00;;;5.50;;
57341;SDS011;43175;51.002;18.316;2023-11-21T01:54:58;10.60;;;4.60;;
57341;SDS011;43175;51.002;18.316;2023-11-21T01:57:24;12.90;;;5.90;;
57341;SDS011;43175;51.002;18.316;2023-11-21T01:59:50;10.50;;;4.50;;
57341;SDS011;43175;51.002;18.316;2023-11-21T02:02:16;8.60;;;3.00;;
57341;SDS011;43175;51.002;18.316;2023-11-21T02:04:42;8.30;;;2.70;;
57341;SDS011;43175;51.002;18.316;2023-11-21T02:07:07;9.10;;;2.50;;
57341;SDS011;43175;51.002;18.316;2023-11-21T02:09:33;10.50;;;3.60;;
57341;SDS011;43175;51.002;18.316;2023-11-21T02:11:59;9.30;;;3.20;;
57341;SDS011;43175;51.002;18.316;2023-11-21T02:14:25;9.50;;;3.80;;
57341;SDS011;43175;51.002;18.316;2023-11-21T02:16:52;9.60;;;3.90;;
57341;SDS011;43175;51.002;18.316;2023-11-21T02:19:18;10.10;;;3.00;;
57341;SDS011;43175;51.002;18.316;2023-11-21T02:21:56;9.00;;;3.20;;
57341;SDS011;43175;51.002;18.316;2023-11-21T02:24:28;9.30;;;3.00;;
57341;SDS011;43175;51.002;18.316;2023-11-21T02:26:54;8.20;;;2.80;;
57341;SDS011;43175;51.002;18.316;2023-11-21T02:29:20;7.80;;;2.50;;
57341;SDS011;43175;51.002;18.316;2023-11-21T02:31:53;8.30;;;3.10;;
57341;SDS011;43175;51.002;18.316;2023-11-21T02:34:20;7.70;;;2.60;;
57341;SDS011;43175;51.002;18.316;2023-11-21T02:36:46;9.50;;;2.80;;
57341;SDS011;43175;51.002;18.316;2023-11-21T02:39:14;9.60;;;3.00;;
57341;SDS011;43175;51.002;18.316;2023-11-21T02:41:40;9.40;;;3.50;;
57341;SDS011;43175;51.002;18.316;2023-11-21T02:44:06;10.20;;;3.80;;
57341;SDS011;43175;51.002;18.316;2023-11-21T02:46:32;11.60;;;3.90;;
57341;SDS011;43175;51.002;18.316;2023-11-21T02:48:59;10.70;;;3.40;;
57341;SDS011;43175;51.002;18.316;2023-11-21T02:51:25;8.70;;;2.90;;
57341;SDS011;43175;51.002;18.316;2023-11-21T02:53:50;10.70;;;3.00;;
57341;SDS011;43175;51.002;18.316;2023-11-21T02:56:16;9.50;;;3.20;;
57341;SDS011;43175;51.002;18.316;2023-11-21T02:58:43;9.20;;;2.70;;
57341;SDS011;43175;51.002;18.316;2023-11-21T03:01:11;11.50;;;2.90;;
57341;SDS011;43175;51.002;18.316;2023-11-21T03:03:38;8.80;;;2.90;;
57341;SDS011;43175;51.002;18.316;2023-11-21T03:06:07;8.70;;;2.80;;
57341;SDS011;43175;51.002;18.316;2023-11-21T03:08:34;9.80;;;3.00;;
57341;SDS011;43175;51.002;18.316;2023-11-21T03:11:00;9.20;;;3.00;;
57341;SDS011;43175;51.002;18.316;2023-11-21T03:13:25;10.50;;;2.70;;
57341;SDS011;43175;51.002;18.316;2023-11-21T03:15:50;9.70;;;2.90;;
57341;SDS011;43175;51.002;18.316;2023-11-21T03:18:16;9.60;;;3.20;;
57341;SDS011;43175;51.002;18.316;2023-11-21T03:20:42;11.30;;;3.20;;
57341;SDS011;43175;51.002;18.316;2023-11-21T03:23:11;9.60;;;2.90;;
57341;SDS011;43175;51.002;18.316;2023-11-21T03:25:37;9.50;;;3.30;;
57341;SDS011;43175;51.002;18.316;2023-11-21T03:28:02;9.80;;;3.50;;
57341;SDS011;43175;51.002;18.316;2023-11-21T03:30:28;11.00;;;3.70;;
57341;SDS011;43175;51.002;18.316;2023-11-21T03:32:54;12.00;;;4.60;;
57341;SDS011;43175;51.002;18.316;2023-11-21T03:35:19;13.40;;;4.50;;
57341;SDS011;43175;51.002;18.316;2023-11-21T03:37:46;13.80;;;5.00;;
57341;SDS011;43175;51.002;18.316;2023-11-21T03:40:12;13.80;;;5.40;;
57341;SDS011;43175;51.002;18.316;2023-11-21T03:42:38;12.90;;;5.70;;
57341;SDS011;43175;51.002;18.316;2023-11-21T03:45:04;14.10;;;6.60;;
57341;SDS011;43175;51.002;18.316;2023-11-21T03:47:29;14.90;;;7.20;;
57341;SDS011;43175;51.002;18.316;2023-11-21T03:49:55;14.00;;;6.80;;
57341;SDS011;43175;51.002;18.316;2023-11-21T03:52:20;14.70;;;6.90;;
57341;SDS011;43175;51.002;18.316;2023-11-21T03:54:46;16.80;;;9.10;;
57341;SDS011;43175;51.002;18.316;2023-11-21T03:57:11;16.20;;;8.40;;
57341;SDS011;43175;51.002;18.316;2023-11-21T03:59:39;18.50;;;9.10;;
57341;SDS011;43175;51.002;18.316;2023-11-21T04:02:05;29.70;;;18.40;;
57341;SDS011;43175;51.002;18.316;2023-11-21T04:04:30;20.90;;;11.50;;
57341;SDS011;43175;51.002;18.316;2023-11-21T04:06:56;18.00;;;9.10;;
57341;SDS011;43175;51.002;18.316;2023-11-21T04:09:21;19.90;;;10.60;;
57341;SDS011;43175;51.002;18.316;2023-11-21T04:11:51;17.20;;;8.20;;
57341;SDS011;43175;51.002;18.316;2023-11-21T04:14:17;15.00;;;7.80;;
57341;SDS011;43175;51.002;18.316;2023-11-21T04:16:43;15.70;;;8.30;;
57341;SDS011;43175;51.002;18.316;2023-11-21T04:19:08;17.30;;;8.90;;
57341;SDS011;43175;51.002;18.316;2023-11-21T04:21:40;16.80;;;8.80;;
57341;SDS011;43175;51.002;18.316;2023-11-21T04:24:06;17.40;;;8.60;;
57341;SDS011;43175;51.002;18.316;2023-11-21T04:26:31;19.00;;;8.70;;
57341;SDS011;43175;51.002;18.316;2023-11-21T04:28:57;25.60;;;12.30;;
57341;SDS011;43175;51.002;18.316;2023-11-21T04:31:22;20.00;;;9.60;;
57341;SDS011;43175;51.002;18.316;2023-11-21T04:33:48;23.90;;;12.50;;
57341;SDS011;43175;51.002;18.316;2023-11-21T04:36:14;27.30;;;14.10;;
57341;SDS011;43175;51.002;18.316;2023-11-21T04:38:39;21.50;;;10.10;;
57341;SDS011;43175;51.002;18.316;2023-11-21T04:41:06;20.80;;;9.30;;
57341;SDS011;43175;51.002;18.316;2023-11-21T04:43:31;19.40;;;8.90;;
57341;SDS011;43175;51.002;18.316;2023-11-21T04:45:56;18.80;;;8.80;;
57341;SDS011;43175;51.002;18.316;2023-11-21T04:48:22;17.20;;;7.60;;
57341;SDS011;43175;51.002;18.316;2023-11-21T04:50:47;18.50;;;8.60;;
57341;SDS011;43175;51.002;18.316;2023-11-21T04:53:13;16.90;;;8.30;;
57341;SDS011;43175;51.002;18.316;2023-11-21T04:55:40;15.50;;;7.30;;
57341;SDS011;43175;51.002;18.316;2023-11-21T04:58:06;15.60;;;7.70;;
57341;SDS011;43175;51.002;18.316;2023-11-21T05:00:31;17.90;;;7.80;;
57341;SDS011;43175;51.002;18.316;2023-11-21T05:02:57;16.00;;;7.90;;
57341;SDS011;43175;51.002;18.316;2023-11-21T05:05:22;21.10;;;8.00;;
57341;SDS011;43175;51.002;18.316;2023-11-21T05:07:49;16.70;;;8.00;;
57341;SDS011;43175;51.002;18.316;2023-11-21T05:10:14;17.70;;;8.20;;
57341;SDS011;43175;51.002;18.316;2023-11-21T05:12:40;16.30;;;8.20;;
57341;SDS011;43175;51.002;18.316;2023-11-21T05:15:07;18.10;;;9.00;;
57341;SDS011;43175;51.002;18.316;2023-11-21T05:17:33;17.90;;;8.70;;
57341;SDS011;43175;51.002;18.316;2023-11-21T05:19:59;18.20;;;8.20;;
57341;SDS011;43175;51.002;18.316;2023-11-21T05:22:29;18.20;;;8.00;;
57341;SDS011;43175;51.002;18.316;2023-11-21T05:24:54;16.60;;;7.30;;
57341;SDS011;43175;51.002;18.316;2023-11-21T05:27:20;16.10;;;7.20;;
57341;SDS011;43175;51.002;18.316;2023-11-21T05:29:45;16.40;;;6.90;;
57341;SDS011;43175;51.002;18.316;2023-11-21T05:32:11;15.10;;;7.30;;
57341;SDS011;43175;51.002;18.316;2023-11-21T05:34:36;15.10;;;6.40;;
57341;SDS011;43175;51.002;18.316;2023-11-21T05:37:02;12.90;;;5.30;;
57341;SDS011;43175;51.002;18.316;2023-11-21T05:39:27;13.00;;;5.20;;
57341;SDS011;43175;51.002;18.316;2023-11-21T05:41:53;12.60;;;5.20;;
57341;SDS011;43175;51.002;18.316;2023-11-21T05:44:19;12.60;;;5.10;;
57341;SDS011;43175;51.002;18.316;2023-11-21T05:46:44;11.40;;;4.10;;
57341;SDS011;43175;51.002;18.316;2023-11-21T05:49:10;10.10;;;3.70;;
57341;SDS011;43175;51.002;18.316;2023-11-21T05:51:36;10.50;;;3.60;;
57341;SDS011;43175;51.002;18.316;2023-11-21T05:54:02;10.40;;;3.70;;
57341;SDS011;43175;51.002;18.316;2023-11-21T05:56:28;12.40;;;4.10;;
57341;SDS011;43175;51.002;18.316;2023-11-21T05:58:54;13.80;;;4.90;;
57341;SDS011;43175;51.002;18.316;2023-11-21T06:01:19;12.10;;;5.10;;
57341;SDS011;43175;51.002;18.316;2023-11-21T06:03:45;14.90;;;6.20;;
57341;SDS011;43175;51.002;18.316;2023-11-21T06:06:11;16.20;;;7.30;;
57341;SDS011;43175;51.002;18.316;2023-11-21T06:08:36;15.70;;;7.40;;
57341;SDS011;43175;51.002;18.316;2023-11-21T06:11:01;17.20;;;9.00;;
57341;SDS011;43175;51.002;18.316;2023-11-21T06:13:27;20.30;;;10.90;;
57341;SDS011;43175;51.002;18.316;2023-11-21T06:15:53;19.30;;;10.10;;
57341;SDS011;43175;51.002;18.316;2023-11-21T06:18:19;17.00;;;8.50;;
57341;SDS011;43175;51.002;18.316;2023-11-21T06:20:45;15.60;;;7.50;;
57341;SDS011;43175;51.002;18.316;2023-11-21T06:23:11;16.30;;;8.60;;
57341;SDS011;43175;51.002;18.316;2023-11-21T06:25:36;13.70;;;6.90;;
57341;SDS011;43175;51.002;18.316;2023-11-21T06:28:02;14.10;;;6.40;;
57341;SDS011;43175;51.002;18.316;2023-11-21T06:30:27;16.70;;;7.40;;
57341;SDS011;43175;51.002;18.316;2023-11-21T06:32:54;16.80;;;8.70;;
57341;SDS011;43175;51.002;18.316;2023-11-21T06:35:20;17.40;;;8.40;;
57341;SDS011;43175;51.002;18.316;2023-11-21T06:37:46;15.50;;;7.30;;
57341;SDS011;43175;51.002;18.316;2023-11-21T06:40:14;14.30;;;6.30;;
57341;SDS011;43175;51.002;18.316;2023-11-21T06:42:40;14.30;;;6.40;;
57341;SDS011;43175;51.002;18.316;2023-11-21T06:45:06;15.30;;;7.20;;
57341;SDS011;43175;51.002;18.316;2023-11-21T06:47:32;14.20;;;6.70;;
57341;SDS011;43175;51.002;18.316;2023-11-21T06:49:58;15.40;;;6.70;;
57341;SDS011;43175;51.002;18.316;2023-11-21T06:52:24;16.40;;;7.30;;
57341;SDS011;43175;51.002;18.316;2023-11-21T06:54:49;16.40;;;7.00;;
57341;SDS011;43175;51.002;18.316;2023-11-21T06:57:15;19.60;;;8.80;;
57341;SDS011;43175;51.002;18.316;2023-11-21T06:59:40;21.80;;;10.30;;
57341;SDS011;43175;51.002;18.316;2023-11-21T07:02:06;18.00;;;8.00;;
57341;SDS011;43175;51.002;18.316;2023-11-21T07:04:35;18.00;;;7.70;;
57341;SDS011;43175;51.002;18.316;2023-11-21T07:07:02;23.80;;;11.10;;
57341;SDS011;43175;51.002;18.316;2023-11-21T07:09:28;21.90;;;11.30;;
57341;SDS011;43175;51.002;18.316;2023-11-21T07:11:54;20.30;;;9.60;;
57341;SDS011;43175;51.002;18.316;2023-11-21T07:14:20;19.50;;;10.20;;
57341;SDS011;43175;51.002;18.316;2023-11-21T07:16:46;19.90;;;9.80;;
57341;SDS011;43175;51.002;18.316;2023-11-21T07:19:12;21.50;;;11.60;;
57341;SDS011;43175;51.002;18.316;2023-11-21T07:21:37;23.50;;;11.50;;
57341;SDS011;43175;51.002;18.316;2023-11-21T07:24:04;18.90;;;10.50;;
57341;SDS011;43175;51.002;18.316;2023-11-21T07:26:31;20.10;;;9.30;;
57341;SDS011;43175;51.002;18.316;2023-11-21T07:28:58;46.40;;;26.40;;
57341;SDS011;43175;51.002;18.316;2023-11-21T07:31:24;23.00;;;11.90;;
57341;SDS011;43175;51.002;18.316;2023-11-21T07:33:50;24.70;;;14.80;;
57341;SDS011;43175;51.002;18.316;2023-11-21T07:36:16;28.60;;;17.40;;
57341;SDS011;43175;51.002;18.316;2023-11-21T07:38:48;37.00;;;22.20;;
57341;SDS011;43175;51.002;18.316;2023-11-21T07:41:14;23.10;;;13.00;;
57341;SDS011;43175;51.002;18.316;2023-11-21T07:43:43;54.00;;;30.50;;
57341;SDS011;43175;51.002;18.316;2023-11-21T07:46:09;56.40;;;33.00;;
57341;SDS011;43175;51.002;18.316;2023-11-21T07:48:35;43.20;;;27.60;;
57341;SDS011;43175;51.002;18.316;2023-11-21T07:51:02;35.80;;;19.10;;
57341;SDS011;43175;51.002;18.316;2023-11-21T07:53:30;33.00;;;19.80;;
57341;SDS011;43175;51.002;18.316;2023-11-21T07:55:57;24.80;;;14.90;;
57341;SDS011;43175;51.002;18.316;2023-11-21T07:58:23;20.40;;;11.50;;
57341;SDS011;43175;51.002;18.316;2023-11-21T08:00:49;20.80;;;11.40;;
57341;SDS011;43175;51.002;18.316;2023-11-21T08:03:14;18.20;;;9.10;;
57341;SDS011;43175;51.002;18.316;2023-11-21T08:05:40;18.70;;;10.30;;
57341;SDS011;43175;51.002;18.316;2023-11-21T08:08:05;18.50;;;9.30;;
57341;SDS011;43175;51.002;18.316;2023-11-21T08:10:31;19.90;;;10.30;;
57341;SDS011;43175;51.002;18.316;2023-11-21T08:12:57;18.80;;;9.90;;
57341;SDS011;43175;51.002;18.316;2023-11-21T08:15:23;21.10;;;10.60;;
57341;SDS011;43175;51.002;18.316;2023-11-21T08:17:49;19.50;;;10.00;;
57341;SDS011;43175;51.002;18.316;2023-11-21T08:20:14;20.50;;;10.20;;
57341;SDS011;43175;51.002;18.316;2023-11-21T08:22:43;20.80;;;11.10;;
57341;SDS011;43175;51.002;18.316;2023-11-21T08:25:09;31.30;;;18.20;;
57341;SDS011;43175;51.002;18.316;2023-11-21T08:27:34;81.20;;;50.80;;
57341;SDS011;43175;51.002;18.316;2023-11-21T08:30:00;48.30;;;33.30;;
57341;SDS011;43175;51.002;18.316;2023-11-21T08:32:26;39.70;;;26.90;;
57341;SDS011;43175;51.002;18.316;2023-11-21T08:34:51;23.90;;;14.40;;
57341;SDS011;43175;51.002;18.316;2023-11-21T08:37:17;20.70;;;11.90;;
57341;SDS011;43175;51.002;18.316;2023-11-21T08:39:46;18.30;;;9.20;;
57341;SDS011;43175;51.002;18.316;2023-11-21T08:42:13;18.90;;;8.50;;
57341;SDS011;43175;51.002;18.316;2023-11-21T08:44:39;18.00;;;8.70;;
57341;SDS011;43175;51.002;18.316;2023-11-21T08:47:05;18.50;;;8.90;;
57341;SDS011;43175;51.002;18.316;2023-11-21T08:49:31;21.20;;;8.70;;
57341;SDS011;43175;51.002;18.316;2023-11-21T08:51:56;19.80;;;8.70;;
57341;SDS011;43175;51.002;18.316;2023-11-21T08:54:24;18.30;;;8.30;;
57341;SDS011;43175;51.002;18.316;2023-11-21T08:56:54;16.90;;;7.50;;
57341;SDS011;43175;51.002;18.316;2023-11-21T08:59:20;16.20;;;8.00;;
57341;SDS011;43175;51.002;18.316;2023-11-21T09:01:46;17.10;;;7.50;;
57341;SDS011;43175;51.002;18.316;2023-11-21T09:04:11;16.80;;;7.70;;
57341;SDS011;43175;51.002;18.316;2023-11-21T09:06:38;18.70;;;8.50;;
57341;SDS011;43175;51.002;18.316;2023-11-21T09:09:05;18.90;;;9.60;;
57341;SDS011;43175;51.002;18.316;2023-11-21T09:11:31;64.90;;;35.40;;
57341;SDS011;43175;51.002;18.316;2023-11-21T09:13:59;90.90;;;51.30;;
57341;SDS011;43175;51.002;18.316;2023-11-21T09:16:25;74.70;;;40.50;;
57341;SDS011;43175;51.002;18.316;2023-11-21T09:18:50;58.80;;;36.00;;
57341;SDS011;43175;51.002;18.316;2023-11-21T09:21:16;47.30;;;32.30;;
57341;SDS011;43175;51.002;18.316;2023-11-21T09:23:43;36.50;;;25.00;;
57341;SDS011;43175;51.002;18.316;2023-11-21T09:26:10;29.70;;;17.40;;
57341;SDS011;43175;51.002;18.316;2023-11-21T09:28:35;25.60;;;13.80;;
57341;SDS011;43175;51.002;18.316;2023-11-21T09:31:04;21.10;;;10.90;;
57341;SDS011;43175;51.002;18.316;2023-11-21T09:33:30;20.30;;;10.00;;
57341;SDS011;43175;51.002;18.316;2023-11-21T09:35:56;17.30;;;8.70;;
57341;SDS011;43175;51.002;18.316;2023-11-21T09:38:22;17.90;;;8.10;;
57341;SDS011;43175;51.002;18.316;2023-11-21T09:40:47;14.50;;;6.90;;
57341;SDS011;43175;51.002;18.316;2023-11-21T09:43:17;13.20;;;6.00;;
57341;SDS011;43175;51.002;18.316;2023-11-21T09:45:48;11.00;;;4.80;;
57341;SDS011;43175;51.002;18.316;2023-11-21T09:48:15;13.50;;;5.50;;
57341;SDS011;43175;51.002;18.316;2023-11-21T09:50:42;11.40;;;4.90;;
57341;SDS011;43175;51.002;18.316;2023-11-21T09:53:18;11.10;;;4.80;;
57341;SDS011;43175;51.002;18.316;2023-11-21T09:55:50;10.10;;;4.20;;
57341;SDS011;43175;51.002;18.316;2023-11-21T09:58:18;10.70;;;4.60;;
57341;SDS011;43175;51.002;18.316;2023-11-21T10:00:45;11.00;;;4.50;;
57341;SDS011;43175;51.002;18.316;2023-11-21T10:03:11;10.80;;;4.60;;
57341;SDS011;43175;51.002;18.316;2023-11-21T10:05:37;11.90;;;5.10;;
57341;SDS011;43175;51.002;18.316;2023-11-21T10:08:04;22.10;;;10.10;;
57341;SDS011;43175;51.002;18.316;2023-11-21T10:10:32;46.60;;;20.30;;
57341;SDS011;43175;51.002;18.316;2023-11-21T10:12:58;52.10;;;22.10;;
57341;SDS011;43175;51.002;18.316;2023-11-21T10:15:28;54.00;;;23.50;;
57341;SDS011;43175;51.002;18.316;2023-11-21T10:17:55;56.40;;;24.40;;
57341;SDS011;43175;51.002;18.316;2023-11-21T10:20:20;49.70;;;23.30;;
57341;SDS011;43175;51.002;18.316;2023-11-21T10:22:46;57.80;;;25.10;;
57341;SDS011;43175;51.002;18.316;2023-11-21T10:25:12;53.80;;;24.60;;
57341;SDS011;43175;51.002;18.316;2023-11-21T10:27:42;73.40;;;25.10;;
57341;SDS011;43175;51.002;18.316;2023-11-21T10:30:09;56.00;;;24.60;;
57341;SDS011;43175;51.002;18.316;2023-11-21T10:32:40;57.50;;;26.00;;
57341;SDS011;43175;51.002;18.316;2023-11-21T10:35:08;65.80;;;25.20;;
57341;SDS011;43175;51.002;18.316;2023-11-21T10:37:38;60.50;;;26.50;;
57341;SDS011;43175;51.002;18.316;2023-11-21T10:40:06;65.50;;;26.70;;
57341;SDS011;43175;51.002;18.316;2023-11-21T10:42:32;67.50;;;25.80;;
57341;SDS011;43175;51.002;18.316;2023-11-21T10:44:58;81.80;;;26.20;;
57341;SDS011;43175;51.002;18.316;2023-11-21T10:47:23;76.80;;;25.50;;
57341;SDS011;43175;51.002;18.316;2023-11-21T10:49:49;70.70;;;26.20;;
57341;SDS011;43175;51.002;18.316;2023-11-21T10:52:14;100.10;;;25.30;;
57341;SDS011;43175;51.002;18.316;2023-11-21T10:54:43;90.00;;;26.90;;
57341;SDS011;43175;51.002;18.316;2023-11-21T10:57:08;80.70;;;24.60;;
57341;SDS011;43175;51.002;18.316;2023-11-21T10:59:35;77.70;;;26.40;;
57341;SDS011;43175;51.002;18.316;2023-11-21T11:02:01;81.20;;;24.70;;
57341;SDS011;43175;51.002;18.316;2023-11-21T11:04:29;76.40;;;25.40;;
57341;SDS011;43175;51.002;18.316;2023-11-21T11:06:57;82.00;;;25.70;;
57341;SDS011;43175;51.002;18.316;2023-11-21T11:09:22;69.30;;;24.00;;
57341;SDS011;43175;51.002;18.316;2023-11-21T11:11:48;62.80;;;22.90;;
57341;SDS011;43175;51.002;18.316;2023-11-21T11:14:14;64.00;;;22.90;;
57341;SDS011;43175;51.002;18.316;2023-11-21T11:16:40;67.40;;;23.20;;
57341;SDS011;43175;51.002;18.316;2023-11-21T11:19:08;54.70;;;21.90;;
57341;SDS011;43175;51.002;18.316;2023-11-21T11:21:39;62.90;;;21.50;;
57341;SDS011;43175;51.002;18.316;2023-11-21T11:32:13;64.50;;;20.10;;
57341;SDS011;43175;51.002;18.316;2023-11-21T11:34:44;63.40;;;20.90;;
57341;SDS011;43175;51.002;18.316;2023-11-21T11:37:11;64.10;;;20.20;;
57341;SDS011;43175;51.002;18.316;2023-11-21T11:42:04;76.20;;;20.00;;
57341;SDS011;43175;51.002;18.316;2023-11-21T11:44:48;65.30;;;21.20;;
57341;SDS011;43175;51.002;18.316;2023-11-21T11:47:20;61.10;;;19.70;;
57341;SDS011;43175;51.002;18.316;2023-11-21T11:49:57;63.20;;;19.50;;
57341;SDS011;43175;51.002;18.316;2023-11-21T11:55:04;61.60;;;21.00;;
57341;SDS011;43175;51.002;18.316;2023-11-21T11:57:30;72.10;;;19.30;;
57341;SDS011;43175;51.002;18.316;2023-11-21T12:02:48;71.40;;;20.00;;
57341;SDS011;43175;51.002;18.316;2023-11-21T12:05:15;97.40;;;20.30;;
57341;SDS011;43175;51.002;18.316;2023-11-21T12:07:42;73.50;;;19.50;;
57341;SDS011;43175;51.002;18.316;2023-11-21T12:10:08;77.50;;;20.80;;
57341;SDS011;43175;51.002;18.316;2023-11-21T12:12:36;81.80;;;22.00;;
57341;SDS011;43175;51.002;18.316;2023-11-21T12:15:04;105.00;;;22.50;;
57341;SDS011;43175;51.002;18.316;2023-11-21T12:17:30;95.30;;;21.60;;
57341;SDS011;43175;51.002;18.316;2023-11-21T12:20:03;80.10;;;21.30;;
57341;SDS011;43175;51.002;18.316;2023-11-21T12:22:29;76.10;;;21.10;;
57341;SDS011;43175;51.002;18.316;2023-11-21T12:24:56;69.10;;;20.20;;
57341;SDS011;43175;51.002;18.316;2023-11-21T12:27:21;87.80;;;20.50;;
57341;SDS011;43175;51.002;18.316;2023-11-21T12:29:47;125.30;;;21.80;;
57341;SDS011;43175;51.002;18.316;2023-11-21T12:32:13;107.60;;;21.70;;
57341;SDS011;43175;51.002;18.316;2023-11-21T12:34:40;91.10;;;19.60;;
57341;SDS011;43175;51.002;18.316;2023-11-21T12:37:06;69.50;;;21.40;;
57341;SDS011;43175;51.002;18.316;2023-11-21T12:39:31;91.10;;;19.90;;
57341;SDS011;43175;51.002;18.316;2023-11-21T12:41:57;78.10;;;20.60;;
57341;SDS011;43175;51.002;18.316;2023-11-21T12:44:23;66.30;;;19.80;;
57341;SDS011;43175;51.002;18.316;2023-11-21T12:46:49;81.30;;;19.10;;
57341;SDS011;43175;51.002;18.316;2023-11-21T12:49:15;84.80;;;20.50;;
57341;SDS011;43175;51.002;18.316;2023-11-21T12:51:46;61.80;;;18.00;;
57341;SDS011;43175;51.002;18.316;2023-11-21T12:54:12;57.70;;;19.30;;
57341;SDS011;43175;51.002;18.316;2023-11-21T12:56:38;50.40;;;17.00;;
57341;SDS011;43175;51.002;18.316;2023-11-21T12:59:04;43.30;;;17.90;;
57341;SDS011;43175;51.002;18.316;2023-11-21T13:01:30;52.50;;;18.70;;
57341;SDS011;43175;51.002;18.316;2023-11-21T13:03:57;52.00;;;19.90;;
57341;SDS011;43175;51.002;18.316;2023-11-21T13:06:23;58.30;;;19.70;;
57341;SDS011;43175;51.002;18.316;2023-11-21T13:08:53;51.60;;;19.60;;
57341;SDS011;43175;51.002;18.316;2023-11-21T13:11:19;52.70;;;19.70;;
57341;SDS011;43175;51.002;18.316;2023-11-21T13:13:44;47.00;;;19.20;;
57341;SDS011;43175;51.002;18.316;2023-11-21T13:16:10;44.30;;;20.40;;
57341;SDS011;43175;51.002;18.316;2023-11-21T13:18:36;43.90;;;18.70;;
57341;SDS011;43175;51.002;18.316;2023-11-21T13:21:07;38.10;;;16.10;;
57341;SDS011;43175;51.002;18.316;2023-11-21T13:23:35;36.30;;;16.80;;
57341;SDS011;43175;51.002;18.316;2023-11-21T13:26:02;37.80;;;16.20;;
57341;SDS011;43175;51.002;18.316;2023-11-21T13:28:29;36.10;;;16.60;;
57341;SDS011;43175;51.002;18.316;2023-11-21T13:30:58;32.20;;;16.50;;
57341;SDS011;43175;51.002;18.316;2023-11-21T13:33:28;34.60;;;16.70;;
57341;SDS011;43175;51.002;18.316;2023-11-21T13:35:53;33.30;;;15.20;;
57341;SDS011;43175;51.002;18.316;2023-11-21T13:38:21;28.00;;;13.90;;
57341;SDS011;43175;51.002;18.316;2023-11-21T13:40:50;25.10;;;12.90;;
57341;SDS011;43175;51.002;18.316;2023-11-21T13:43:19;22.40;;;11.60;;
57341;SDS011;43175;51.002;18.316;2023-11-21T13:45:46;22.60;;;11.40;;
57341;SDS011;43175;51.002;18.316;2023-11-21T13:48:12;20.00;;;10.90;;
57341;SDS011;43175;51.002;18.316;2023-11-21T13:50:56;20.20;;;10.50;;
57341;SDS011;43175;51.002;18.316;2023-11-21T13:53:36;18.40;;;9.80;;
57341;SDS011;43175;51.002;18.316;2023-11-21T13:56:03;18.30;;;10.10;;
57341;SDS011;43175;51.002;18.316;2023-11-21T13:58:28;18.40;;;9.30;;
57341;SDS011;43175;51.002;18.316;2023-11-21T14:01:13;17.80;;;9.10;;
57341;SDS011;43175;51.002;18.316;2023-11-21T14:04:01;17.50;;;8.50;;
57341;SDS011;43175;51.002;18.316;2023-11-21T14:06:48;16.30;;;7.60;;
57341;SDS011;43175;51.002;18.316;2023-11-21T14:09:20;17.00;;;8.30;;
57341;SDS011;43175;51.002;18.316;2023-11-21T14:11:58;16.60;;;8.60;;
57341;SDS011;43175;51.002;18.316;2023-11-21T14:14:25;16.00;;;8.30;;
57341;SDS011;43175;51.002;18.316;2023-11-21T14:16:51;19.40;;;9.50;;
57341;SDS011;43175;51.002;18.316;2023-11-21T14:19:17;21.20;;;10.50;;
57341;SDS011;43175;51.002;18.316;2023-11-21T14:21:46;18.40;;;10.40;;
57341;SDS011;43175;51.002;18.316;2023-11-21T14:24:11;21.10;;;10.60;;
57341;SDS011;43175;51.002;18.316;2023-11-21T14:26:44;20.10;;;10.60;;
57341;SDS011;43175;51.002;18.316;2023-11-21T14:29:14;22.40;;;12.50;;